Strona główna
METAR-TAF:

METAR-TAF

Lotnisko :

Florennes, Belgia

Szerokość geograficzna: 50-14N, Długość geograficzna: 004-39E, wysokość: 279 m

Aktualna obserwacja pogody

Raport powstał 30 minut temu, godzina 04:25 UTC
Wiatr 7 kt od północno-północny wschód
Temperatura 9°C
Wilgotność 81%
Ciśnienie 1032 hPa
Widzialność 10 km lub więcej

METAR: EBFS 280425Z AUTO 03007KT 9999 FEW080/// BKN095/// OVC110/// 09/06 Q1032 BLU

czas: 06:55 (04:55 UTC)

Prognoza

Raport powstał 13 godziny i 14 minut temu, godzina 15:41 UTC
Prognoza ważna od 27 godzina 19 UTC do 28 godzina 07 UTC
Wiatr 12 kt od północ
Widzialność 10 km lub więcej
Rozproszone chmury na wysokości 25000 ft
Prawdopodobieństwo 40% :
Przejściowo
od 27 godzina 20 UTC do 28 godzina 07 UTC
Wiatr 10 kt od północ w porywach dochodzący do 20 kt
Stopniowe zmiany
od 28 godzina 03 UTC do 28 godzina 05 UTC
Wiatr 10 kt od północny wschód

TAF: EBFS 271541Z 2719/2807 01012KT 9999 SCT250 PROB40 TEMPO 2720/2807 01010G20KT BECMG 2803/2805 05010KT

Obserwacja i prognoza pogody dla ponad 4000 lotnisk (raport METAR i TAF).

Dostępne stacje oznaczono żółtymi i czerwonymi punktami na mapie.

Najedź kursorem aby zobaczyć nazwę stacji.

Kliknij aby zobaczyć obserwacje i prognozy pogody.

Aby zmienić mapę: kliknij na zielony przycisk z czarnym krzyżykiem, aby powiększyć; na zielony przycisk z myślnikiem, aby pomniejszyć; na zielone strzałki, aby przejść do map sąsiednich.


METAR-TAF: